South Deerfield, MA (01373)

8:56 PM EDT on May 05, 2015 (GMT -0400)
Plain Road East | | Change Station
CLOSE
Current Station
Personal Weather Station
Location: South Deerfield, MA
Elevation: 223 ft
Nearby Weather Stations

Elev 223 ft 42.50 °N, 72.61 °W | Updated 22 minutes ago

Partly Cloudy
Partly Cloudy
60.3 °F
Feels Like 60.3 °F
N
0.0
Wind Variable Wind from NW
Gusts 1.0 mph

Today
High -- | Low -- °F
--% Chance of Precip.
Yesterday
High -- | Low -- °F
Precip. -- in
5:40 AM 7:54 PM
Waning Gibbous, 96% visible
Pressure 30.19 in
Visibility 10.0 miles
Clouds Clear
Dew Point 44 °F
Humidity 55%
Rainfall -999.00 in
Snow Depth Not available.
UV 0 out of 12
Pollen 9.10 out of 12
Air Quality Not available.
Flu Activity Widespread
METAR KORE 060052Z AUTO 00000KT 10SM CLR 14/04 A3019 RMK AO2 SLP224 T01440044

More Conditions Fewer Conditions

Pressure 30.19 in
Visibility 10.0 miles
Clouds Clear
Dew Point 44 °F
Humidity 55%
Rainfall -999.00 in
Snow Depth Not available.
UV 0 out of 12
Pollen 9.10 out of 12
Air Quality Not available.
Flu Activity Widespread
METAR KORE 060052Z AUTO 00000KT 10SM CLR 14/04 A3019 RMK AO2 SLP224 T01440044

More Conditions Fewer Conditions

10-Day Weather Forecast

Almanac

Astronomy

May. 05, 2015 Rise Set
Actual Time
Civil Twilight
Nautical Twilight
Astronomical Twilight
Moon
Length of Visible Light
Length of Day
Tomorrow will be .
, % of the Moon is Illuminated

Today's Extremes

State Highs State Lows

Community

WunderPhotos

Upload Photos

1,819,025 photos uploaded!

WunderBlogs® & News

Nearby

Air Quality

  Air Quality AQ Index Pollutant
Not available.

Snow Depth

Station Depth Elevation

Earthquake Activity

City Distance Mag. Time & Date
Minimum magnitude displayed is 2.5.

Coastal Water Temperatures

Place Temperature

Stations

Nearby Weather Stations

Station Location Temp. Windchill Dew Point Humidity Wind Precip. Elev Updated Type